createdAt,value
2023-01-17T00:02:13.126Z,4.40
2023-01-17T00:04:58.791Z,4.10
2023-01-17T00:07:45.699Z,3.50
2023-01-17T00:10:22.562Z,6.00
2023-01-17T00:13:02.980Z,4.50
2023-01-17T00:15:31.272Z,3.10
2023-01-17T00:17:58.567Z,2.80
2023-01-17T00:20:46.334Z,2.30
2023-01-17T00:23:37.387Z,2.70
2023-01-17T00:26:15.094Z,3.10
2023-01-17T00:28:43.601Z,3.50
2023-01-17T00:31:12.620Z,4.80
2023-01-17T00:33:39.640Z,4.60
2023-01-17T00:36:08.220Z,3.60
2023-01-17T00:38:37.413Z,3.30
2023-01-17T00:41:08.015Z,3.10
2023-01-17T00:43:53.817Z,11.10
2023-01-17T00:46:39.851Z,5.50
2023-01-17T00:49:26.330Z,2.70
2023-01-17T00:52:12.233Z,2.70
2023-01-17T00:54:59.088Z,2.60
2023-01-17T00:57:44.859Z,2.80
2023-01-17T01:00:31.100Z,2.50
2023-01-17T01:03:16.661Z,8.90
2023-01-17T01:08:48.234Z,11.30
2023-01-17T01:11:39.467Z,17.20
2023-01-17T01:14:28.719Z,12.40
2023-01-17T01:17:14.381Z,5.40
2023-01-17T01:22:45.491Z,4.90
2023-01-17T01:25:31.127Z,4.20
2023-01-17T01:28:31.888Z,4.00
2023-01-17T01:31:22.390Z,3.50
2023-01-17T01:33:53.330Z,3.00
2023-01-17T01:36:20.947Z,7.40
2023-01-17T01:38:49.693Z,5.20
2023-01-17T01:41:17.425Z,3.40
2023-01-17T01:43:46.234Z,2.80
2023-01-17T01:46:23.387Z,2.60
2023-01-17T01:48:54.004Z,3.00
2023-01-17T01:51:43.843Z,2.70
2023-01-17T01:54:20.026Z,3.70
2023-01-17T01:56:48.638Z,3.50
2023-01-17T01:59:18.773Z,3.80
2023-01-17T02:01:47.843Z,4.00
2023-01-17T02:04:14.960Z,4.10
2023-01-17T02:06:51.611Z,6.20
2023-01-17T02:09:19.630Z,6.10
2023-01-17T02:11:49.604Z,5.70
2023-01-17T02:14:18.830Z,4.00
2023-01-17T02:16:58.119Z,3.30
2023-01-17T02:19:37.058Z,2.50
2023-01-17T02:22:19.443Z,2.00
2023-01-17T02:25:27.700Z,2.30
2023-01-17T02:32:55.860Z,2.80
2023-01-17T02:35:32.114Z,2.40
2023-01-17T02:38:16.142Z,2.60
2023-01-17T02:41:10.862Z,2.60
2023-01-17T02:43:39.171Z,2.90
2023-01-17T02:46:06.911Z,3.40
2023-01-17T02:48:37.186Z,2.80
2023-01-17T02:51:22.703Z,3.00
2023-01-17T02:56:58.111Z,5.40
2023-01-17T02:59:45.926Z,4.10
2023-01-17T03:03:00.518Z,7.00
2023-01-17T03:05:56.958Z,4.10
2023-01-17T03:08:25.355Z,3.90
2023-01-17T03:10:52.760Z,3.80
2023-01-17T03:13:19.742Z,3.60
2023-01-17T03:15:46.816Z,3.80
2023-01-17T03:18:15.971Z,3.80
2023-01-17T03:20:42.891Z,3.30
2023-01-17T03:23:09.893Z,2.70
2023-01-17T03:25:36.906Z,3.30
2023-01-17T03:28:04.192Z,2.90
2023-01-17T03:30:31.126Z,3.60
2023-01-17T03:33:03.669Z,3.10
2023-01-17T03:35:30.666Z,3.20
2023-01-17T03:37:57.612Z,3.40
2023-01-17T03:40:24.797Z,3.10
2023-01-17T03:42:51.677Z,2.90
2023-01-17T03:45:19.503Z,3.30
2023-01-17T03:47:46.487Z,3.20
2023-01-17T03:50:13.522Z,4.00
2023-01-17T03:52:40.435Z,3.40
2023-01-17T03:55:07.727Z,3.60
2023-01-17T03:57:34.620Z,3.40
2023-01-17T04:00:01.641Z,3.70
2023-01-17T04:02:28.676Z,3.40
2023-01-17T04:04:55.822Z,3.90
2023-01-17T04:07:22.749Z,3.30
2023-01-17T04:09:51.729Z,3.40
2023-01-17T04:12:18.611Z,4.10
2023-01-17T04:14:45.529Z,3.90
2023-01-17T04:17:13.923Z,4.00
2023-01-17T04:19:41.105Z,4.30
2023-01-17T04:22:08.121Z,4.70
2023-01-17T04:24:35.340Z,3.90
2023-01-17T04:27:04.640Z,4.10
2023-01-17T04:29:31.984Z,4.10
2023-01-17T04:32:01.080Z,4.50
2023-01-17T04:34:28.008Z,4.50
2023-01-17T04:36:54.978Z,4.80
2023-01-17T04:39:23.049Z,3.90
2023-01-17T04:41:49.960Z,4.10
2023-01-17T04:44:16.839Z,4.00
2023-01-17T04:46:44.365Z,3.90
2023-01-17T04:49:11.255Z,3.70
2023-01-17T04:51:38.182Z,3.70
2023-01-17T04:54:05.257Z,3.60
2023-01-17T04:56:32.189Z,4.40
2023-01-17T04:58:59.074Z,4.80
2023-01-17T05:01:26.737Z,3.50
2023-01-17T05:03:53.728Z,4.20
2023-01-17T05:06:20.684Z,3.70
2023-01-17T05:08:47.666Z,4.70
2023-01-17T05:11:15.061Z,5.00
2023-01-17T05:13:41.922Z,5.20
2023-01-17T05:16:08.908Z,4.40
2023-01-17T05:18:37.168Z,4.90
2023-01-17T05:21:06.763Z,5.40
2023-01-17T05:23:33.706Z,7.30
2023-01-17T05:26:00.704Z,6.20
2023-01-17T05:28:27.590Z,4.20
2023-01-17T05:30:54.642Z,3.70
2023-01-17T05:33:22.036Z,4.10
2023-01-17T05:35:49.005Z,4.90
2023-01-17T05:38:16.647Z,4.80
2023-01-17T05:40:43.547Z,5.20
2023-01-17T05:43:10.613Z,5.20
2023-01-17T05:45:37.661Z,4.70
2023-01-17T05:48:06.218Z,4.70
2023-01-17T05:50:36.716Z,4.80
2023-01-17T05:53:10.379Z,5.10
2023-01-17T05:55:38.855Z,4.90
2023-01-17T05:58:08.579Z,5.30
2023-01-17T06:00:36.738Z,5.40
2023-01-17T06:03:03.830Z,5.70
2023-01-17T06:05:31.078Z,5.70
2023-01-17T06:08:00.498Z,5.70
2023-01-17T06:10:28.902Z,5.10
2023-01-17T06:13:06.735Z,5.60
2023-01-17T06:15:38.189Z,5.00
2023-01-17T06:18:11.056Z,5.10
2023-01-17T06:20:52.118Z,5.30
2023-01-17T06:23:23.833Z,5.40
2023-01-17T06:25:51.402Z,7.00
2023-01-17T06:28:26.028Z,6.00
2023-01-17T06:30:56.718Z,6.00
2023-01-17T06:33:23.731Z,7.50
2023-01-17T06:35:52.636Z,6.00
2023-01-17T06:38:20.503Z,9.30
2023-01-17T06:40:48.525Z,14.70
2023-01-17T06:43:19.722Z,13.10
2023-01-17T06:45:46.961Z,10.60
2023-01-17T06:48:19.192Z,7.30
2023-01-17T06:50:49.451Z,7.80
2023-01-17T06:53:16.958Z,6.30
2023-01-17T06:55:45.126Z,5.20
2023-01-17T06:58:16.116Z,5.90
2023-01-17T07:00:44.142Z,5.40
2023-01-17T07:03:24.528Z,7.30
2023-01-17T07:05:59.610Z,6.10
2023-01-17T07:08:56.130Z,7.30
2023-01-17T07:11:28.017Z,7.50
2023-01-17T07:15:18.587Z,6.70
2023-01-17T07:17:47.018Z,7.00
2023-01-17T07:20:14.071Z,5.90
2023-01-17T07:22:45.227Z,13.60
2023-01-17T07:25:13.908Z,20.00
2023-01-17T07:27:40.903Z,18.70
2023-01-17T07:30:09.459Z,28.90
2023-01-17T07:32:36.711Z,36.70
2023-01-17T07:35:07.668Z,36.90
2023-01-17T07:37:38.763Z,30.10
2023-01-17T07:40:09.243Z,32.90
2023-01-17T07:42:36.254Z,32.60
2023-01-17T07:45:03.830Z,41.10
2023-01-17T07:47:33.543Z,34.30
2023-01-17T07:50:04.499Z,34.80
2023-01-17T07:52:32.761Z,37.10
2023-01-17T07:54:59.898Z,39.30
2023-01-17T07:57:28.592Z,49.70
2023-01-17T07:59:58.758Z,69.70
2023-01-17T08:02:30.635Z,54.60
2023-01-17T08:05:22.762Z,42.60
2023-01-17T08:08:01.559Z,43.10
2023-01-17T08:11:12.231Z,41.70
2023-01-17T08:13:55.622Z,45.40
2023-01-17T08:16:32.681Z,78.70
2023-01-17T08:19:11.073Z,52.30
2023-01-17T08:21:48.539Z,42.70
2023-01-17T08:24:30.133Z,30.80
2023-01-17T08:27:20.483Z,27.10
2023-01-17T08:30:01.564Z,38.60
2023-01-17T08:32:42.075Z,24.70
2023-01-17T08:35:32.913Z,21.80
2023-01-17T08:38:12.464Z,19.10
2023-01-17T08:40:52.733Z,21.70
2023-01-17T08:43:38.255Z,14.70
2023-01-17T08:46:36.389Z,11.80
2023-01-17T08:49:25.228Z,11.00
2023-01-17T08:52:34.082Z,10.60
2023-01-17T08:55:14.954Z,6.90
2023-01-17T09:01:06.230Z,7.60
2023-01-17T09:03:46.191Z,11.00
2023-01-17T09:06:54.612Z,9.10
2023-01-17T09:10:02.548Z,13.30
2023-01-17T09:12:54.675Z,9.00
2023-01-17T09:15:35.640Z,7.90
2023-01-17T09:18:27.206Z,6.70
2023-01-17T09:21:15.430Z,5.70
2023-01-17T09:27:07.370Z,8.10
2023-01-17T09:29:52.423Z,5.80
2023-01-17T09:32:38.774Z,4.90
2023-01-17T09:35:21.848Z,4.80
2023-01-17T09:38:25.200Z,5.90
2023-01-17T09:41:51.135Z,5.30
2023-01-17T09:45:44.570Z,5.30
2023-01-17T09:52:28.137Z,4.00
2023-01-17T09:56:19.624Z,3.90
2023-01-17T09:59:32.631Z,3.00
2023-01-17T10:02:27.333Z,4.80
2023-01-17T10:05:02.274Z,7.20
2023-01-17T10:08:04.706Z,4.70
2023-01-17T10:11:14.198Z,3.10
2023-01-17T10:14:40.054Z,3.10
2023-01-17T10:17:45.247Z,3.10
2023-01-17T10:20:56.386Z,3.50
2023-01-17T10:24:02.342Z,3.90
2023-01-17T10:27:06.981Z,3.90
2023-01-17T10:37:02.514Z,3.50
2023-01-17T10:42:53.465Z,3.60
2023-01-17T10:46:19.070Z,4.10
2023-01-17T10:49:17.760Z,8.90
2023-01-17T10:53:04.312Z,5.60
2023-01-17T10:56:23.725Z,3.20
2023-01-17T11:00:22.765Z,3.20
2023-01-17T11:02:57.069Z,3.90
2023-01-17T11:06:31.503Z,4.10
2023-01-17T11:09:40.145Z,17.60
2023-01-17T11:12:29.709Z,10.40
2023-01-17T11:15:11.894Z,16.20
2023-01-17T11:18:39.547Z,7.50
2023-01-17T11:21:28.976Z,8.60
2023-01-17T11:28:07.852Z,7.10
2023-01-17T11:30:52.825Z,7.00
2023-01-17T11:34:02.685Z,7.00
2023-01-17T11:37:18.071Z,7.20
2023-01-17T11:40:00.573Z,15.20
2023-01-17T11:45:34.652Z,17.00
2023-01-17T11:48:31.825Z,7.50
2023-01-17T11:51:20.216Z,8.80
2023-01-17T11:54:50.709Z,21.00
2023-01-17T11:57:37.381Z,7.30
2023-01-17T12:00:19.178Z,9.50
2023-01-17T12:03:17.880Z,5.80
2023-01-17T12:06:32.926Z,9.60
2023-01-17T12:09:56.278Z,7.00
2023-01-17T12:13:40.809Z,4.30
2023-01-17T12:16:47.395Z,4.60
2023-01-17T12:20:28.825Z,4.60
2023-01-17T12:23:33.167Z,4.30
2023-01-17T12:26:43.418Z,3.40
2023-01-17T12:30:04.069Z,3.90
2023-01-17T12:33:23.494Z,3.90
2023-01-17T12:36:22.244Z,4.10
2023-01-17T12:39:16.892Z,3.70
2023-01-17T12:42:31.692Z,3.70
2023-01-17T12:45:50.331Z,4.00
2023-01-17T12:48:34.303Z,4.50
2023-01-17T12:51:27.480Z,4.10
2023-01-17T12:54:40.633Z,3.50
2023-01-17T12:57:17.165Z,3.70
2023-01-17T13:00:30.340Z,4.80
2023-01-17T13:03:25.379Z,3.80
2023-01-17T13:06:04.745Z,3.60
2023-01-17T13:08:56.246Z,4.00
2023-01-17T13:12:03.434Z,4.00
2023-01-17T13:14:59.110Z,4.00
2023-01-17T13:18:09.258Z,3.70
2023-01-17T13:24:34.842Z,3.50
2023-01-17T13:27:30.921Z,3.80
2023-01-17T13:30:50.596Z,3.80
2023-01-17T13:34:02.053Z,3.90
2023-01-17T13:37:22.430Z,3.70
2023-01-17T13:40:26.047Z,4.30
2023-01-17T13:43:02.225Z,4.50
2023-01-17T13:45:40.161Z,4.60
2023-01-17T13:48:28.877Z,4.00
2023-01-17T13:52:01.014Z,4.20
2023-01-17T13:54:55.458Z,4.20
2023-01-17T13:57:34.392Z,4.80
2023-01-17T14:00:26.988Z,4.80
2023-01-17T14:02:56.078Z,4.90
2023-01-17T14:05:40.562Z,17.80
2023-01-17T14:08:21.229Z,5.50
2023-01-17T14:11:20.687Z,5.20
2023-01-17T14:13:52.415Z,10.10
2023-01-17T14:16:29.366Z,7.80
2023-01-17T14:18:59.707Z,5.90
2023-01-17T14:21:35.246Z,5.40
2023-01-17T14:24:47.791Z,6.40
2023-01-17T14:27:32.498Z,7.80
2023-01-17T14:30:10.525Z,8.20
2023-01-17T14:33:07.939Z,13.60
2023-01-17T14:35:39.139Z,6.30
2023-01-17T14:38:27.885Z,7.60
2023-01-17T14:41:00.153Z,6.40
2023-01-17T14:43:32.419Z,6.40
2023-01-17T14:46:07.452Z,6.40
2023-01-17T14:48:40.277Z,6.00
2023-01-17T14:51:19.787Z,7.20
2023-01-17T14:54:02.292Z,6.50
2023-01-17T14:56:30.722Z,5.70
2023-01-17T14:59:06.541Z,6.20
2023-01-17T15:01:35.752Z,6.90
2023-01-17T15:04:03.396Z,6.40
2023-01-17T15:06:40.202Z,7.10
2023-01-17T15:09:19.869Z,7.30
2023-01-17T15:11:49.877Z,6.50
2023-01-17T15:14:27.915Z,7.20
2023-01-17T15:16:55.442Z,6.70
2023-01-17T15:19:24.532Z,6.60
2023-01-17T15:21:54.075Z,6.70
2023-01-17T15:24:24.967Z,6.90
2023-01-17T15:26:52.028Z,8.20
2023-01-17T15:29:30.255Z,8.50
2023-01-17T15:32:00.111Z,8.80
2023-01-17T15:34:29.411Z,8.80
2023-01-17T15:37:00.946Z,8.90
2023-01-17T15:39:34.618Z,9.80
2023-01-17T15:42:08.291Z,10.90
2023-01-17T15:44:48.183Z,8.30
2023-01-17T15:47:37.979Z,13.20
2023-01-17T15:50:20.910Z,29.40
2023-01-17T15:52:52.612Z,12.80
2023-01-17T15:55:38.357Z,12.00
2023-01-17T15:58:26.904Z,15.30
2023-01-17T16:00:55.224Z,16.00
2023-01-17T16:03:31.147Z,11.70
2023-01-17T16:06:02.367Z,11.60
2023-01-17T16:08:38.500Z,10.70
2023-01-17T16:11:07.888Z,10.00
2023-01-17T16:13:42.793Z,9.00
2023-01-17T16:16:17.204Z,9.80
2023-01-17T16:18:46.247Z,10.30
2023-01-17T16:21:22.741Z,9.50
2023-01-17T16:23:50.541Z,9.40
2023-01-17T16:26:18.144Z,9.00
2023-01-17T16:28:45.230Z,9.80
2023-01-17T16:31:12.346Z,9.10
2023-01-17T16:33:41.830Z,9.60
2023-01-17T16:36:16.229Z,10.30
2023-01-17T16:38:44.815Z,12.50
2023-01-17T16:41:11.798Z,13.40
2023-01-17T16:43:38.819Z,13.50
2023-01-17T16:46:07.168Z,16.30
2023-01-17T16:48:36.864Z,28.90
2023-01-17T16:51:08.026Z,22.40
2023-01-17T16:53:37.018Z,21.00
2023-01-17T16:56:13.993Z,29.10
2023-01-17T16:58:41.129Z,24.10
2023-01-17T17:01:16.930Z,25.50
2023-01-17T17:03:44.195Z,25.30
2023-01-17T17:06:11.479Z,19.30
2023-01-17T17:08:39.438Z,16.60
2023-01-17T17:11:16.773Z,13.10
2023-01-17T17:13:45.710Z,12.90
2023-01-17T17:16:23.549Z,12.80
2023-01-17T17:19:04.803Z,12.80
2023-01-17T17:21:33.985Z,17.10
2023-01-17T17:24:02.021Z,17.70
2023-01-17T17:26:33.579Z,17.70
2023-01-17T17:29:01.558Z,17.70
2023-01-17T17:31:28.546Z,18.50
2023-01-17T17:34:03.089Z,17.60
2023-01-17T17:36:30.413Z,16.50
2023-01-17T17:38:58.938Z,15.10
2023-01-17T17:41:28.680Z,16.30
2023-01-17T17:43:56.811Z,15.50
2023-01-17T17:46:26.564Z,14.30
2023-01-17T17:48:53.513Z,14.60
2023-01-17T17:51:38.246Z,13.00
2023-01-17T17:54:08.110Z,14.10
2023-01-17T17:56:37.242Z,15.70
2023-01-17T17:59:08.367Z,17.30
2023-01-17T18:01:40.457Z,16.50
2023-01-17T18:04:08.479Z,16.60
2023-01-17T18:06:35.780Z,16.00
2023-01-17T18:09:03.694Z,15.70
2023-01-17T18:11:31.318Z,15.70
2023-01-17T18:14:01.407Z,18.60
2023-01-17T18:16:31.965Z,16.60
2023-01-17T18:19:00.235Z,17.30
2023-01-17T18:21:31.826Z,17.30
2023-01-17T18:24:02.133Z,19.50
2023-01-17T18:26:32.315Z,18.80
2023-01-17T18:29:01.142Z,20.40
2023-01-17T18:31:30.053Z,20.30
2023-01-17T18:34:05.248Z,19.20
2023-01-17T18:39:04.073Z,21.00
2023-01-17T18:41:31.609Z,29.80
2023-01-17T18:43:58.588Z,21.80
2023-01-17T18:46:27.208Z,23.00
2023-01-17T18:48:56.645Z,22.30
2023-01-17T18:51:25.246Z,22.10
2023-01-17T18:53:52.498Z,20.90
2023-01-17T18:56:21.655Z,22.20
2023-01-17T18:58:50.053Z,20.10
2023-01-17T19:01:26.205Z,20.10
2023-01-17T19:03:59.259Z,21.60
2023-01-17T19:06:29.640Z,21.20
2023-01-17T19:08:58.681Z,21.20
2023-01-17T19:11:27.962Z,20.30
2023-01-17T19:13:56.145Z,16.60
2023-01-17T19:16:28.784Z,23.40
2023-01-17T19:19:00.985Z,20.80
2023-01-17T19:21:28.617Z,21.60
2023-01-17T19:23:56.861Z,20.40
2023-01-17T19:26:26.846Z,21.60
2023-01-17T19:28:58.203Z,20.20
2023-01-17T19:31:29.118Z,19.20
2023-01-17T19:33:57.933Z,18.40
2023-01-17T19:36:27.747Z,21.00
2023-01-17T19:39:04.365Z,13.60
2023-01-17T19:41:34.252Z,14.80
2023-01-17T19:44:05.796Z,14.60
2023-01-17T19:46:33.895Z,12.40
2023-01-17T19:49:02.985Z,12.00
2023-01-17T19:51:29.980Z,12.00
2023-01-17T19:54:00.575Z,17.50
2023-01-17T19:56:28.340Z,12.10
2023-01-17T19:59:00.040Z,13.10
2023-01-17T20:01:29.929Z,13.00
2023-01-17T20:03:58.625Z,12.60
2023-01-17T20:06:28.354Z,14.00
2023-01-17T20:08:58.638Z,11.70
2023-01-17T20:11:27.476Z,12.20
2023-01-17T20:13:57.004Z,11.50
2023-01-17T20:16:27.170Z,11.60
2023-01-17T20:18:54.268Z,15.30
2023-01-17T20:21:31.870Z,14.50
2023-01-17T20:24:02.655Z,15.50
2023-01-17T20:26:36.141Z,15.70
2023-01-17T20:29:10.918Z,13.30
2023-01-17T20:31:40.306Z,13.00
2023-01-17T20:34:10.946Z,13.90
2023-01-17T20:36:41.168Z,11.30
2023-01-17T20:39:10.677Z,10.10
2023-01-17T20:41:41.683Z,8.30
2023-01-17T20:44:12.358Z,8.60
2023-01-17T20:46:40.914Z,8.80
2023-01-17T20:49:15.764Z,8.30
2023-01-17T20:51:44.622Z,8.10
2023-01-17T20:54:14.654Z,9.10
2023-01-17T20:56:42.023Z,9.30
2023-01-17T20:59:14.890Z,9.10
2023-01-17T21:01:43.266Z,9.40
2023-01-17T21:04:10.874Z,9.90
2023-01-17T21:06:39.898Z,10.10
2023-01-17T21:09:10.304Z,10.10
2023-01-17T21:11:37.835Z,10.00
2023-01-17T21:14:05.965Z,10.40
2023-01-17T21:16:33.615Z,9.80
2023-01-17T21:19:01.360Z,9.50
2023-01-17T21:21:29.030Z,8.70
2023-01-17T21:23:58.554Z,8.30
2023-01-17T21:26:27.744Z,8.90
2023-01-17T21:28:55.736Z,8.50
2023-01-17T21:31:24.616Z,9.80
2023-01-17T21:33:56.940Z,8.80
2023-01-17T21:36:27.867Z,9.50
2023-01-17T21:38:58.171Z,7.90
2023-01-17T21:41:28.303Z,8.30
2023-01-17T21:43:59.412Z,8.40
2023-01-17T21:46:28.093Z,7.50
2023-01-17T21:48:57.778Z,8.70
2023-01-17T21:51:45.685Z,7.20
2023-01-17T21:54:12.759Z,7.20
2023-01-17T21:56:58.402Z,7.20
2023-01-17T22:01:55.241Z,7.40
2023-01-17T22:04:22.191Z,7.60
2023-01-17T22:06:49.279Z,8.50
2023-01-17T22:09:18.340Z,7.80
2023-01-17T22:11:45.372Z,7.00
2023-01-17T22:14:12.371Z,6.70
2023-01-17T22:16:40.058Z,7.20
2023-01-17T22:19:07.699Z,6.80
2023-01-17T22:21:34.783Z,7.40
2023-01-17T22:24:01.795Z,7.50
2023-01-17T22:26:31.222Z,6.60
2023-01-17T22:29:02.006Z,7.60
2023-01-17T22:31:29.780Z,7.90
2023-01-17T22:34:00.280Z,8.20
2023-01-17T22:36:28.873Z,8.10
2023-01-17T22:38:56.273Z,8.50
2023-01-17T22:41:27.414Z,7.90
2023-01-17T22:43:58.348Z,8.80
2023-01-17T22:46:29.032Z,9.90
2023-01-17T22:48:57.056Z,9.70
2023-01-17T22:51:26.227Z,9.10
2023-01-17T22:53:55.899Z,13.40
2023-01-17T22:56:26.192Z,11.40
2023-01-17T22:58:53.532Z,11.20
2023-01-17T23:01:23.583Z,10.40
2023-01-17T23:03:55.807Z,8.50
2023-01-17T23:06:34.942Z,7.50
2023-01-17T23:09:06.168Z,7.20
2023-01-17T23:11:43.128Z,6.00
2023-01-17T23:14:13.159Z,6.80
2023-01-17T23:17:09.073Z,5.80
2023-01-17T23:19:46.761Z,6.90
2023-01-17T23:22:19.436Z,8.20
2023-01-17T23:24:52.739Z,7.70
2023-01-17T23:27:45.766Z,7.40
2023-01-17T23:30:16.042Z,6.60
2023-01-17T23:32:46.196Z,7.20
2023-01-17T23:35:14.189Z,6.60
2023-01-17T23:37:59.759Z,6.90
2023-01-17T23:40:26.828Z,6.90
2023-01-17T23:43:12.166Z,7.60
2023-01-17T23:45:39.252Z,8.40
2023-01-17T23:48:10.700Z,8.30
2023-01-17T23:50:40.112Z,8.10
2023-01-17T23:53:08.056Z,7.40
2023-01-17T23:55:40.255Z,5.80
2023-01-17T23:58:09.548Z,4.90
